Home PIREPS Pireps

Flight BEL2586C

  • Submitted By: Robert Vermeulen
  • Departure Airport: Bruxelles National (EBBR)
  • Arrival Airport: Paris - Charles-de-Gaulle (LFPG)
  • Aircraft: BAE AVRO RJ1 (OO-DWA)
  • Flight Time: 00.59
  • Date Submitted: 06/01/2015
  • Route: CIV UY50 DELOM UZ319 MOPIL
  • Status: Accepted
Flight Details
Gross Revenue:
(77 load / € 120.00 per unit
€ 9,240.00
Fuel Cost:
(2155 fuel used @ 5.1 / unit)
€ 10,990.50

Additional Log Information:

View Log

Aircraft Used in flight is QWSim Avro RJ100 - Brussels Airlines LD - Config
23:01 Brakes are On
23:02 Brakes are Released
23:03 Brakes are On
23:06 Brakes are Released
23:13 You Took off @ 140 Knots and Flaps at Position 1
Departure Weather
EBBR 052150Z VRB01KT CAVOK M01/M03 Q1028 NOSIGrn
23:14 Landing Gear Up @ 160 Knots and 340 Feet
23:16 Above FL100 you need to switch of the landing lights
23:26 Overspeed
23:27 Recovered from Overspeed
23:49 Landing Gear Down @ 161 Knots and 2990 Feet
23:56 You Landed @ 122 Knots and with -400 Vertical Speed
Arrival Weather
LFPG 052230Z 14004KT 100V190 0200 R27L/1000U R09R/0900N R26R/0900U R08L/1000U R26L/0900U R08R/0800N R27R/1000U R09L/1200D FG VV/// M01/M01 Q1027 NOSIGrn
00:00 Brakes are On
00:01 Brussels Bel-Track1.0.0.0

Route Map

Corporate About Us Our Team Vacancies Information Fleet Route Network Rules and Regulations Operations Flight Schedules Event Center Tours Partners IVAO Vatsim Acars dev FSCB

fb Users Online No pilots online!
0 Pilot(s) and 68 Guest(s) Online
CMS by phpVMS - Design by Crazycreatives.com - Copyright © 2018 - Brussels Airlines Virtual